sensor_id;sensor_type;location;lat;lon;timestamp;temperature;humidity
15815;DHT22;8008;50.024;8.172;2022-10-31T04:00:23;11.50;99.90
15815;DHT22;8008;50.024;8.172;2022-10-31T04:02:57;11.40;99.90
15815;DHT22;8008;50.024;8.172;2022-10-31T04:05:29;11.40;99.90
15815;DHT22;8008;50.024;8.172;2022-10-31T04:08:01;11.20;99.90
15815;DHT22;8008;50.024;8.172;2022-10-31T04:10:32;11.10;99.90
15815;DHT22;8008;50.024;8.172;2022-10-31T04:13:03;11.00;99.90
15815;DHT22;8008;50.024;8.172;2022-10-31T04:15:44;11.00;99.90
15815;DHT22;8008;50.024;8.172;2022-10-31T04:18:14;10.90;99.90
15815;DHT22;8008;50.024;8.172;2022-10-31T04:20:42;10.90;99.90
15815;DHT22;8008;50.024;8.172;2022-10-31T04:23:18;10.90;99.90
15815;DHT22;8008;50.024;8.172;2022-10-31T04:25:47;10.90;99.90
15815;DHT22;8008;50.024;8.172;2022-10-31T04:28:16;11.00;99.90
15815;DHT22;8008;50.024;8.172;2022-10-31T04:30:46;11.00;99.90
15815;DHT22;8008;50.024;8.172;2022-10-31T04:33:14;11.00;99.90
15815;DHT22;8008;50.024;8.172;2022-10-31T04:35:44;11.00;99.90
15815;DHT22;8008;50.024;8.172;2022-10-31T04:38:13;11.00;99.90
15815;DHT22;8008;50.024;8.172;2022-10-31T04:40:42;11.10;99.90
15815;DHT22;8008;50.024;8.172;2022-10-31T04:43:29;11.10;99.90
15815;DHT22;8008;50.024;8.172;2022-10-31T04:46:01;11.20;99.90
15815;DHT22;8008;50.024;8.172;2022-10-31T04:48:29;11.20;99.90
15815;DHT22;8008;50.024;8.172;2022-10-31T04:51:01;11.20;99.90
15815;DHT22;8008;50.024;8.172;2022-10-31T04:53:29;11.30;99.90
15815;DHT22;8008;50.024;8.172;2022-10-31T04:56:15;11.30;99.90
15815;DHT22;8008;50.024;8.172;2022-10-31T04:58:46;11.40;99.90
15815;DHT22;8008;50.024;8.172;2022-10-31T05:01:16;11.40;99.90
15815;DHT22;8008;50.024;8.172;2022-10-31T05:03:44;11.40;99.90
15815;DHT22;8008;50.024;8.172;2022-10-31T05:06:12;11.40;99.90
15815;DHT22;8008;50.024;8.172;2022-10-31T05:08:41;11.40;99.90
15815;DHT22;8008;50.024;8.172;2022-10-31T05:11:11;11.40;99.90
15815;DHT22;8008;50.024;8.172;2022-10-31T05:13:38;11.40;99.90
15815;DHT22;8008;50.024;8.172;2022-10-31T05:16:13;11.40;99.90
15815;DHT22;8008;50.024;8.172;2022-10-31T05:19:00;11.40;99.90
15815;DHT22;8008;50.024;8.172;2022-10-31T05:21:54;11.50;99.90
15815;DHT22;8008;50.024;8.172;2022-10-31T05:24:22;11.50;99.90
15815;DHT22;8008;50.024;8.172;2022-10-31T05:26:51;11.40;99.90
15815;DHT22;8008;50.024;8.172;2022-10-31T05:29:19;11.50;99.90
15815;DHT22;8008;50.024;8.172;2022-10-31T05:31:49;11.50;99.90
15815;DHT22;8008;50.024;8.172;2022-10-31T05:34:41;11.50;99.90
15815;DHT22;8008;50.024;8.172;2022-10-31T05:37:30;11.60;99.90
15815;DHT22;8008;50.024;8.172;2022-10-31T05:39:59;11.60;99.90
15815;DHT22;8008;50.024;8.172;2022-10-31T05:42:34;11.60;99.90
15815;DHT22;8008;50.024;8.172;2022-10-31T05:45:02;11.60;99.90
15815;DHT22;8008;50.024;8.172;2022-10-31T05:47:50;11.60;99.90
15815;DHT22;8008;50.024;8.172;2022-10-31T05:50:39;11.60;99.90
15815;DHT22;8008;50.024;8.172;2022-10-31T05:53:09;11.60;99.90
15815;DHT22;8008;50.024;8.172;2022-10-31T05:55:39;11.60;99.90
15815;DHT22;8008;50.024;8.172;2022-10-31T05:58:17;11.60;99.90
15815;DHT22;8008;50.024;8.172;2022-10-31T06:00:53;11.60;99.90
15815;DHT22;8008;50.024;8.172;2022-10-31T06:03:21;11.50;99.90
15815;DHT22;8008;50.024;8.172;2022-10-31T06:05:57;11.50;99.90
15815;DHT22;8008;50.024;8.172;2022-10-31T06:08:31;11.50;99.90
15815;DHT22;8008;50.024;8.172;2022-10-31T06:11:04;11.50;99.90
15815;DHT22;8008;50.024;8.172;2022-10-31T06:14:04;11.50;99.90
15815;DHT22;8008;50.024;8.172;2022-10-31T06:16:45;11.50;99.90
15815;DHT22;8008;50.024;8.172;2022-10-31T06:19:31;11.50;99.90
15815;DHT22;8008;50.024;8.172;2022-10-31T06:22:01;11.60;99.90
15815;DHT22;8008;50.024;8.172;2022-10-31T06:24:29;11.60;99.90
15815;DHT22;8008;50.024;8.172;2022-10-31T06:27:02;11.70;99.90
15815;DHT22;8008;50.024;8.172;2022-10-31T06:29:30;11.50;99.90
15815;DHT22;8008;50.024;8.172;2022-10-31T06:32:11;11.60;99.90
15815;DHT22;8008;50.024;8.172;2022-10-31T06:34:43;11.60;99.90
15815;DHT22;8008;50.024;8.172;2022-10-31T06:37:12;11.50;99.90
15815;DHT22;8008;50.024;8.172;2022-10-31T06:39:43;11.50;99.90
15815;DHT22;8008;50.024;8.172;2022-10-31T06:42:15;11.50;99.90
15815;DHT22;8008;50.024;8.172;2022-10-31T06:44:43;11.60;99.90
15815;DHT22;8008;50.024;8.172;2022-10-31T06:47:29;11.50;99.90
15815;DHT22;8008;50.024;8.172;2022-10-31T06:50:10;11.60;99.90
15815;DHT22;8008;50.024;8.172;2022-10-31T06:52:39;11.60;99.90
15815;DHT22;8008;50.024;8.172;2022-10-31T06:55:08;11.50;99.90
15815;DHT22;8008;50.024;8.172;2022-10-31T06:57:36;11.60;99.90
15815;DHT22;8008;50.024;8.172;2022-10-31T07:00:05;11.70;99.90
15815;DHT22;8008;50.024;8.172;2022-10-31T07:02:43;11.80;99.90
15815;DHT22;8008;50.024;8.172;2022-10-31T07:05:11;11.80;99.90
15815;DHT22;8008;50.024;8.172;2022-10-31T07:07:41;11.80;99.90
15815;DHT22;8008;50.024;8.172;2022-10-31T07:10:09;11.70;99.90
15815;DHT22;8008;50.024;8.172;2022-10-31T07:12:48;11.70;99.90
15815;DHT22;8008;50.024;8.172;2022-10-31T07:15:21;11.70;99.90
15815;DHT22;8008;50.024;8.172;2022-10-31T07:17:49;11.70;99.90
15815;DHT22;8008;50.024;8.172;2022-10-31T07:20:17;11.70;99.90
15815;DHT22;8008;50.024;8.172;2022-10-31T07:22:47;11.70;99.90
15815;DHT22;8008;50.024;8.172;2022-10-31T07:25:17;11.80;99.90
15815;DHT22;8008;50.024;8.172;2022-10-31T07:28:03;11.80;99.90
15815;DHT22;8008;50.024;8.172;2022-10-31T07:30:31;11.80;99.90
15815;DHT22;8008;50.024;8.172;2022-10-31T07:32:59;11.80;99.90
15815;DHT22;8008;50.024;8.172;2022-10-31T07:35:46;11.80;99.90
15815;DHT22;8008;50.024;8.172;2022-10-31T07:38:22;11.80;99.90
15815;DHT22;8008;50.024;8.172;2022-10-31T07:40:51;11.90;99.90
15815;DHT22;8008;50.024;8.172;2022-10-31T07:43:20;12.00;99.90
15815;DHT22;8008;50.024;8.172;2022-10-31T07:46:09;12.20;99.90
15815;DHT22;8008;50.024;8.172;2022-10-31T07:48:37;12.20;99.90
15815;DHT22;8008;50.024;8.172;2022-10-31T07:51:24;12.20;99.90
15815;DHT22;8008;50.024;8.172;2022-10-31T07:54:14;12.30;99.90
15815;DHT22;8008;50.024;8.172;2022-10-31T07:56:42;12.30;99.90
15815;DHT22;8008;50.024;8.172;2022-10-31T07:59:10;12.30;99.90
15815;DHT22;8008;50.024;8.172;2022-10-31T08:01:38;12.30;99.90
15815;DHT22;8008;50.024;8.172;2022-10-31T08:04:25;12.40;99.90
15815;DHT22;8008;50.024;8.172;2022-10-31T08:07:11;12.40;99.90
15815;DHT22;8008;50.024;8.172;2022-10-31T08:09:45;12.40;99.90
15815;DHT22;8008;50.024;8.172;2022-10-31T08:12:20;12.50;99.90
15815;DHT22;8008;50.024;8.172;2022-10-31T08:14:48;12.60;99.90
15815;DHT22;8008;50.024;8.172;2022-10-31T08:17:18;12.50;99.90
15815;DHT22;8008;50.024;8.172;2022-10-31T08:19:57;12.50;99.90
15815;DHT22;8008;50.024;8.172;2022-10-31T08:22:34;12.50;99.90
15815;DHT22;8008;50.024;8.172;2022-10-31T08:25:10;12.50;99.90
15815;DHT22;8008;50.024;8.172;2022-10-31T08:27:38;12.50;99.90
15815;DHT22;8008;50.024;8.172;2022-10-31T08:30:15;12.60;99.90
15815;DHT22;8008;50.024;8.172;2022-10-31T08:33:00;12.70;99.90
15815;DHT22;8008;50.024;8.172;2022-10-31T08:35:54;12.90;99.90
15815;DHT22;8008;50.024;8.172;2022-10-31T08:38:48;12.90;99.90
15815;DHT22;8008;50.024;8.172;2022-10-31T08:41:18;12.90;99.90
15815;DHT22;8008;50.024;8.172;2022-10-31T08:43:47;12.90;99.90
15815;DHT22;8008;50.024;8.172;2022-10-31T08:46:15;13.00;99.90
15815;DHT22;8008;50.024;8.172;2022-10-31T08:48:44;13.00;99.90
15815;DHT22;8008;50.024;8.172;2022-10-31T08:51:11;13.00;99.90
15815;DHT22;8008;50.024;8.172;2022-10-31T08:53:41;13.10;99.90
15815;DHT22;8008;50.024;8.172;2022-10-31T08:56:33;13.10;99.90
15815;DHT22;8008;50.024;8.172;2022-10-31T08:59:05;13.10;99.90
15815;DHT22;8008;50.024;8.172;2022-10-31T09:01:51;13.10;99.90
15815;DHT22;8008;50.024;8.172;2022-10-31T09:04:19;13.20;99.90
15815;DHT22;8008;50.024;8.172;2022-10-31T09:06:48;13.30;99.90
15815;DHT22;8008;50.024;8.172;2022-10-31T09:09:36;13.40;99.90
15815;DHT22;8008;50.024;8.172;2022-10-31T09:12:06;13.50;99.90
15815;DHT22;8008;50.024;8.172;2022-10-31T09:14:52;13.60;99.90
15815;DHT22;8008;50.024;8.172;2022-10-31T09:17:25;13.60;99.90
15815;DHT22;8008;50.024;8.172;2022-10-31T09:20:13;13.70;99.90
15815;DHT22;8008;50.024;8.172;2022-10-31T09:22:41;13.80;99.90
15815;DHT22;8008;50.024;8.172;2022-10-31T09:25:09;13.90;99.90
15815;DHT22;8008;50.024;8.172;2022-10-31T09:27:40;13.80;99.90
15815;DHT22;8008;50.024;8.172;2022-10-31T09:30:09;13.80;99.90
15815;DHT22;8008;50.024;8.172;2022-10-31T09:32:38;13.90;99.90
15815;DHT22;8008;50.024;8.172;2022-10-31T09:35:08;14.00;99.90
15815;DHT22;8008;50.024;8.172;2022-10-31T09:37:35;14.20;99.90
15815;DHT22;8008;50.024;8.172;2022-10-31T09:40:05;14.10;99.90
15815;DHT22;8008;50.024;8.172;2022-10-31T09:42:50;14.20;99.90
15815;DHT22;8008;50.024;8.172;2022-10-31T09:45:27;14.30;99.90
15815;DHT22;8008;50.024;8.172;2022-10-31T09:48:13;14.30;99.90
15815;DHT22;8008;50.024;8.172;2022-10-31T09:51:07;14.40;99.90
15815;DHT22;8008;50.024;8.172;2022-10-31T09:53:48;14.50;99.90
15815;DHT22;8008;50.024;8.172;2022-10-31T09:56:22;14.60;99.90
15815;DHT22;8008;50.024;8.172;2022-10-31T09:58:58;14.80;99.90
15815;DHT22;8008;50.024;8.172;2022-10-31T10:01:36;14.90;99.90
15815;DHT22;8008;50.024;8.172;2022-10-31T10:04:17;15.00;99.90
15815;DHT22;8008;50.024;8.172;2022-10-31T10:07:19;15.10;99.90
15815;DHT22;8008;50.024;8.172;2022-10-31T10:10:14;15.20;99.90
15815;DHT22;8008;50.024;8.172;2022-10-31T10:13:33;15.30;99.90
15815;DHT22;8008;50.024;8.172;2022-10-31T10:16:17;15.30;99.90
15815;DHT22;8008;50.024;8.172;2022-10-31T10:18:59;15.40;99.90
15815;DHT22;8008;50.024;8.172;2022-10-31T10:21:38;15.50;99.90
15815;DHT22;8008;50.024;8.172;2022-10-31T10:27:09;15.50;99.90
15815;DHT22;8008;50.024;8.172;2022-10-31T10:29:42;15.60;99.90
15815;DHT22;8008;50.024;8.172;2022-10-31T10:32:18;15.70;99.90
15815;DHT22;8008;50.024;8.172;2022-10-31T10:34:50;15.70;99.90
15815;DHT22;8008;50.024;8.172;2022-10-31T10:37:25;15.70;99.90
15815;DHT22;8008;50.024;8.172;2022-10-31T10:39:58;15.70;99.90
15815;DHT22;8008;50.024;8.172;2022-10-31T10:42:27;15.90;99.90
15815;DHT22;8008;50.024;8.172;2022-10-31T10:45:18;15.80;99.90
15815;DHT22;8008;50.024;8.172;2022-10-31T10:48:12;15.90;99.90
15815;DHT22;8008;50.024;8.172;2022-10-31T10:50:46;15.90;99.90
15815;DHT22;8008;50.024;8.172;2022-10-31T10:53:26;16.00;99.90
15815;DHT22;8008;50.024;8.172;2022-10-31T10:56:11;16.20;99.90
15815;DHT22;8008;50.024;8.172;2022-10-31T10:58:40;16.20;99.90
15815;DHT22;8008;50.024;8.172;2022-10-31T11:01:11;16.20;99.90
15815;DHT22;8008;50.024;8.172;2022-10-31T11:03:42;16.30;99.90
15815;DHT22;8008;50.024;8.172;2022-10-31T11:06:17;16.30;99.90
15815;DHT22;8008;50.024;8.172;2022-10-31T11:08:48;16.40;99.90
15815;DHT22;8008;50.024;8.172;2022-10-31T11:11:25;16.40;99.90
15815;DHT22;8008;50.024;8.172;2022-10-31T11:13:58;16.50;99.90
15815;DHT22;8008;50.024;8.172;2022-10-31T11:16:30;16.50;99.90
15815;DHT22;8008;50.024;8.172;2022-10-31T11:19:13;16.60;99.90
15815;DHT22;8008;50.024;8.172;2022-10-31T11:21:44;16.70;99.90
15815;DHT22;8008;50.024;8.172;2022-10-31T11:24:21;16.80;99.90
15815;DHT22;8008;50.024;8.172;2022-10-31T11:26:50;16.80;99.90
15815;DHT22;8008;50.024;8.172;2022-10-31T11:29:21;16.80;99.90
15815;DHT22;8008;50.024;8.172;2022-10-31T11:31:52;16.90;99.90
15815;DHT22;8008;50.024;8.172;2022-10-31T11:34:28;16.90;99.90
15815;DHT22;8008;50.024;8.172;2022-10-31T11:37:01;16.80;99.90
15815;DHT22;8008;50.024;8.172;2022-10-31T11:39:30;16.80;99.90
15815;DHT22;8008;50.024;8.172;2022-10-31T11:42:01;16.90;99.90
15815;DHT22;8008;50.024;8.172;2022-10-31T11:44:34;16.80;99.90
15815;DHT22;8008;50.024;8.172;2022-10-31T11:47:03;16.90;99.90
15815;DHT22;8008;50.024;8.172;2022-10-31T11:49:36;16.90;99.90
15815;DHT22;8008;50.024;8.172;2022-10-31T11:52:06;16.90;99.90
15815;DHT22;8008;50.024;8.172;2022-10-31T11:54:45;17.00;99.90
15815;DHT22;8008;50.024;8.172;2022-10-31T11:57:28;17.00;99.90
15815;DHT22;8008;50.024;8.172;2022-10-31T11:59:59;16.90;99.90
15815;DHT22;8008;50.024;8.172;2022-10-31T12:02:27;16.70;99.90
15815;DHT22;8008;50.024;8.172;2022-10-31T12:05:05;16.70;99.90
15815;DHT22;8008;50.024;8.172;2022-10-31T12:07:34;16.80;99.90
15815;DHT22;8008;50.024;8.172;2022-10-31T12:10:10;16.90;99.90
15815;DHT22;8008;50.024;8.172;2022-10-31T12:12:57;17.00;99.90
15815;DHT22;8008;50.024;8.172;2022-10-31T12:15:34;17.00;99.90
15815;DHT22;8008;50.024;8.172;2022-10-31T12:18:24;17.10;99.90
15815;DHT22;8008;50.024;8.172;2022-10-31T12:21:08;17.10;99.90
15815;DHT22;8008;50.024;8.172;2022-10-31T12:23:47;17.10;99.90
15815;DHT22;8008;50.024;8.172;2022-10-31T12:26:22;17.10;99.90
15815;DHT22;8008;50.024;8.172;2022-10-31T12:29:02;17.30;99.90
15815;DHT22;8008;50.024;8.172;2022-10-31T12:31:47;17.40;99.90
15815;DHT22;8008;50.024;8.172;2022-10-31T12:34:38;17.40;99.90
15815;DHT22;8008;50.024;8.172;2022-10-31T12:37:26;17.50;99.90
15815;DHT22;8008;50.024;8.172;2022-10-31T12:40:09;17.60;99.90
15815;DHT22;8008;50.024;8.172;2022-10-31T12:42:52;17.70;99.90
15815;DHT22;8008;50.024;8.172;2022-10-31T12:45:42;17.90;99.90
15815;DHT22;8008;50.024;8.172;2022-10-31T12:48:33;17.90;99.90
15815;DHT22;8008;50.024;8.172;2022-10-31T12:51:09;17.80;99.90
15815;DHT22;8008;50.024;8.172;2022-10-31T12:53:51;17.80;99.90
15815;DHT22;8008;50.024;8.172;2022-10-31T12:56:33;17.80;99.90
15815;DHT22;8008;50.024;8.172;2022-10-31T12:59:08;17.80;99.90
15815;DHT22;8008;50.024;8.172;2022-10-31T13:01:39;17.70;99.90
15815;DHT22;8008;50.024;8.172;2022-10-31T13:04:14;17.70;99.90
15815;DHT22;8008;50.024;8.172;2022-10-31T13:06:46;17.70;99.90
15815;DHT22;8008;50.024;8.172;2022-10-31T13:09:20;17.60;99.90
15815;DHT22;8008;50.024;8.172;2022-10-31T13:11:53;17.60;99.90
15815;DHT22;8008;50.024;8.172;2022-10-31T13:14:25;17.50;99.90
15815;DHT22;8008;50.024;8.172;2022-10-31T13:16:55;17.50;99.90
15815;DHT22;8008;50.024;8.172;2022-10-31T13:19:27;17.50;99.90
15815;DHT22;8008;50.024;8.172;2022-10-31T13:21:59;17.50;99.90
15815;DHT22;8008;50.024;8.172;2022-10-31T13:24:33;17.50;99.90
15815;DHT22;8008;50.024;8.172;2022-10-31T13:27:09;17.50;99.90
15815;DHT22;8008;50.024;8.172;2022-10-31T13:29:42;17.50;99.90
15815;DHT22;8008;50.024;8.172;2022-10-31T13:32:11;17.50;99.90
15815;DHT22;8008;50.024;8.172;2022-10-31T13:34:42;17.50;99.90
15815;DHT22;8008;50.024;8.172;2022-10-31T13:37:17;17.50;99.90
15815;DHT22;8008;50.024;8.172;2022-10-31T13:40:05;17.40;99.90
15815;DHT22;8008;50.024;8.172;2022-10-31T13:42:47;17.30;99.90
15815;DHT22;8008;50.024;8.172;2022-10-31T13:45:19;17.20;99.90
15815;DHT22;8008;50.024;8.172;2022-10-31T13:47:58;17.20;99.90
15815;DHT22;8008;50.024;8.172;2022-10-31T13:50:29;17.20;99.90
15815;DHT22;8008;50.024;8.172;2022-10-31T13:53:11;17.00;99.90
15815;DHT22;8008;50.024;8.172;2022-10-31T13:55:42;17.00;99.90
15815;DHT22;8008;50.024;8.172;2022-10-31T13:58:25;17.00;99.90
15815;DHT22;8008;50.024;8.172;2022-10-31T14:01:16;17.00;99.90
15815;DHT22;8008;50.024;8.172;2022-10-31T14:03:46;16.90;99.90
15815;DHT22;8008;50.024;8.172;2022-10-31T14:06:49;17.00;99.90
15815;DHT22;8008;50.024;8.172;2022-10-31T14:09:22;17.00;99.90
15815;DHT22;8008;50.024;8.172;2022-10-31T14:11:52;17.10;99.90
15815;DHT22;8008;50.024;8.172;2022-10-31T14:14:26;17.10;99.90
15815;DHT22;8008;50.024;8.172;2022-10-31T14:16:57;17.10;99.90
15815;DHT22;8008;50.024;8.172;2022-10-31T14:19:26;17.20;99.90
15815;DHT22;8008;50.024;8.172;2022-10-31T14:21:55;17.40;99.90
15815;DHT22;8008;50.024;8.172;2022-10-31T14:24:35;17.80;99.90
15815;DHT22;8008;50.024;8.172;2022-10-31T14:27:42;18.00;99.90
15815;DHT22;8008;50.024;8.172;2022-10-31T14:30:20;18.40;99.90
15815;DHT22;8008;50.024;8.172;2022-10-31T14:32:51;18.80;99.90
15815;DHT22;8008;50.024;8.172;2022-10-31T14:35:21;19.30;99.90
15815;DHT22;8008;50.024;8.172;2022-10-31T14:38:28;19.70;99.90
15815;DHT22;8008;50.024;8.172;2022-10-31T14:41:28;20.40;99.90
15815;DHT22;8008;50.024;8.172;2022-10-31T14:44:27;20.80;99.90
15815;DHT22;8008;50.024;8.172;2022-10-31T14:47:04;20.60;99.90
15815;DHT22;8008;50.024;8.172;2022-10-31T14:49:50;20.00;99.90
15815;DHT22;8008;50.024;8.172;2022-10-31T14:52:22;19.40;99.90
15815;DHT22;8008;50.024;8.172;2022-10-31T14:54:53;19.10;99.90
15815;DHT22;8008;50.024;8.172;2022-10-31T14:57:25;18.80;99.90
15815;DHT22;8008;50.024;8.172;2022-10-31T14:59:57;18.40;99.90
15815;DHT22;8008;50.024;8.172;2022-10-31T15:02:32;18.10;99.90
15815;DHT22;8008;50.024;8.172;2022-10-31T15:05:07;17.90;99.90
15815;DHT22;8008;50.024;8.172;2022-10-31T15:07:35;17.60;99.90
15815;DHT22;8008;50.024;8.172;2022-10-31T15:10:19;17.40;99.90
15815;DHT22;8008;50.024;8.172;2022-10-31T15:12:48;17.30;99.90
15815;DHT22;8008;50.024;8.172;2022-10-31T15:15:20;17.20;99.90
15815;DHT22;8008;50.024;8.172;2022-10-31T15:17:51;17.10;99.90
15815;DHT22;8008;50.024;8.172;2022-10-31T15:20:21;17.00;99.90
15815;DHT22;8008;50.024;8.172;2022-10-31T15:22:50;16.90;99.90
15815;DHT22;8008;50.024;8.172;2022-10-31T15:25:21;16.80;99.90
15815;DHT22;8008;50.024;8.172;2022-10-31T15:27:50;16.80;99.90
15815;DHT22;8008;50.024;8.172;2022-10-31T15:30:22;16.80;99.90
15815;DHT22;8008;50.024;8.172;2022-10-31T15:32:50;16.70;99.90
15815;DHT22;8008;50.024;8.172;2022-10-31T15:35:26;16.60;99.90
15815;DHT22;8008;50.024;8.172;2022-10-31T15:37:56;16.70;99.90
15815;DHT22;8008;50.024;8.172;2022-10-31T15:40:26;16.60;99.90
15815;DHT22;8008;50.024;8.172;2022-10-31T15:42:56;16.70;99.90
15815;DHT22;8008;50.024;8.172;2022-10-31T15:45:27;16.70;99.90
15815;DHT22;8008;50.024;8.172;2022-10-31T15:47:58;16.60;99.90
15815;DHT22;8008;50.024;8.172;2022-10-31T15:50:31;16.60;99.90
15815;DHT22;8008;50.024;8.172;2022-10-31T15:53:00;16.60;99.90
15815;DHT22;8008;50.024;8.172;2022-10-31T15:55:30;16.60;99.90
15815;DHT22;8008;50.024;8.172;2022-10-31T15:58:02;16.60;99.90
15815;DHT22;8008;50.024;8.172;2022-10-31T16:00:35;16.50;99.90
15815;DHT22;8008;50.024;8.172;2022-10-31T16:03:05;16.50;99.90
15815;DHT22;8008;50.024;8.172;2022-10-31T16:05:36;16.40;99.90
15815;DHT22;8008;50.024;8.172;2022-10-31T16:08:22;16.40;99.90
15815;DHT22;8008;50.024;8.172;2022-10-31T16:10:51;16.30;99.90
15815;DHT22;8008;50.024;8.172;2022-10-31T16:13:23;16.30;99.90
15815;DHT22;8008;50.024;8.172;2022-10-31T16:15:56;16.30;99.90
15815;DHT22;8008;50.024;8.172;2022-10-31T16:18:44;16.30;99.90
15815;DHT22;8008;50.024;8.172;2022-10-31T16:21:13;16.20;99.90
15815;DHT22;8008;50.024;8.172;2022-10-31T16:23:45;16.20;99.90
15815;DHT22;8008;50.024;8.172;2022-10-31T16:26:17;16.20;99.90
15815;DHT22;8008;50.024;8.172;2022-10-31T16:28:51;16.10;99.90
15815;DHT22;8008;50.024;8.172;2022-10-31T16:31:36;16.10;99.90
15815;DHT22;8008;50.024;8.172;2022-10-31T16:34:12;16.00;99.90
15815;DHT22;8008;50.024;8.172;2022-10-31T16:36:41;16.00;99.90
15815;DHT22;8008;50.024;8.172;2022-10-31T16:39:10;16.00;99.90
15815;DHT22;8008;50.024;8.172;2022-10-31T16:41:39;15.90;99.90
15815;DHT22;8008;50.024;8.172;2022-10-31T16:44:15;15.90;99.90
15815;DHT22;8008;50.024;8.172;2022-10-31T16:46:46;15.90;99.90
15815;DHT22;8008;50.024;8.172;2022-10-31T16:49:13;15.80;99.90
15815;DHT22;8008;50.024;8.172;2022-10-31T16:51:43;15.70;99.90
15815;DHT22;8008;50.024;8.172;2022-10-31T16:54:12;15.70;99.90
15815;DHT22;8008;50.024;8.172;2022-10-31T16:56:40;15.60;99.90
15815;DHT22;8008;50.024;8.172;2022-10-31T16:59:11;15.50;99.90
15815;DHT22;8008;50.024;8.172;2022-10-31T17:01:43;15.40;99.90
15815;DHT22;8008;50.024;8.172;2022-10-31T17:04:15;15.40;99.90
15815;DHT22;8008;50.024;8.172;2022-10-31T17:06:43;15.30;99.90
15815;DHT22;8008;50.024;8.172;2022-10-31T17:09:11;15.30;99.90
15815;DHT22;8008;50.024;8.172;2022-10-31T17:11:45;15.30;99.90
15815;DHT22;8008;50.024;8.172;2022-10-31T17:14:15;15.20;99.90
15815;DHT22;8008;50.024;8.172;2022-10-31T17:16:43;15.10;99.90
15815;DHT22;8008;50.024;8.172;2022-10-31T17:19:12;15.10;99.90
15815;DHT22;8008;50.024;8.172;2022-10-31T17:21:41;15.00;99.90
15815;DHT22;8008;50.024;8.172;2022-10-31T17:24:12;15.00;99.90
15815;DHT22;8008;50.024;8.172;2022-10-31T17:26:40;15.00;99.90
15815;DHT22;8008;50.024;8.172;2022-10-31T17:29:08;14.90;99.90
15815;DHT22;8008;50.024;8.172;2022-10-31T17:31:36;14.90;99.90
15815;DHT22;8008;50.024;8.172;2022-10-31T17:34:05;14.80;99.90
15815;DHT22;8008;50.024;8.172;2022-10-31T17:36:34;14.70;99.90
15815;DHT22;8008;50.024;8.172;2022-10-31T17:39:04;14.70;99.90
15815;DHT22;8008;50.024;8.172;2022-10-31T17:41:35;14.80;99.90
15815;DHT22;8008;50.024;8.172;2022-10-31T17:44:03;14.80;99.90
15815;DHT22;8008;50.024;8.172;2022-10-31T17:46:31;14.70;99.90
15815;DHT22;8008;50.024;8.172;2022-10-31T17:48:59;14.60;99.90
15815;DHT22;8008;50.024;8.172;2022-10-31T17:51:27;14.50;99.90
15815;DHT22;8008;50.024;8.172;2022-10-31T17:53:56;14.50;99.90
15815;DHT22;8008;50.024;8.172;2022-10-31T17:56:25;14.60;99.90
15815;DHT22;8008;50.024;8.172;2022-10-31T17:58:53;14.50;99.90
15815;DHT22;8008;50.024;8.172;2022-10-31T18:01:23;14.50;99.90
15815;DHT22;8008;50.024;8.172;2022-10-31T18:03:51;14.50;99.90
15815;DHT22;8008;50.024;8.172;2022-10-31T18:06:19;14.50;99.90
15815;DHT22;8008;50.024;8.172;2022-10-31T18:08:46;14.40;99.90
15815;DHT22;8008;50.024;8.172;2022-10-31T18:11:16;14.40;99.90
15815;DHT22;8008;50.024;8.172;2022-10-31T18:13:52;14.30;99.90
15815;DHT22;8008;50.024;8.172;2022-10-31T18:16:21;14.30;99.90
15815;DHT22;8008;50.024;8.172;2022-10-31T18:18:50;14.30;99.90
15815;DHT22;8008;50.024;8.172;2022-10-31T18:21:18;14.30;99.90
15815;DHT22;8008;50.024;8.172;2022-10-31T18:23:47;14.20;99.90
15815;DHT22;8008;50.024;8.172;2022-10-31T18:26:15;14.10;99.90
15815;DHT22;8008;50.024;8.172;2022-10-31T18:28:43;14.10;99.90
15815;DHT22;8008;50.024;8.172;2022-10-31T18:31:12;14.10;99.90
15815;DHT22;8008;50.024;8.172;2022-10-31T18:33:40;14.10;99.90
15815;DHT22;8008;50.024;8.172;2022-10-31T18:36:09;14.10;99.90
15815;DHT22;8008;50.024;8.172;2022-10-31T18:38:38;14.00;99.90
15815;DHT22;8008;50.024;8.172;2022-10-31T18:41:07;14.00;99.90
15815;DHT22;8008;50.024;8.172;2022-10-31T18:43:35;13.90;99.90
15815;DHT22;8008;50.024;8.172;2022-10-31T18:46:05;13.90;99.90
15815;DHT22;8008;50.024;8.172;2022-10-31T18:48:36;13.90;99.90
15815;DHT22;8008;50.024;8.172;2022-10-31T18:51:05;13.80;99.90
15815;DHT22;8008;50.024;8.172;2022-10-31T18:53:34;13.70;99.90
15815;DHT22;8008;50.024;8.172;2022-10-31T18:56:06;13.70;99.90
15815;DHT22;8008;50.024;8.172;2022-10-31T18:58:34;13.70;99.90
15815;DHT22;8008;50.024;8.172;2022-10-31T19:01:05;13.70;99.90
15815;DHT22;8008;50.024;8.172;2022-10-31T19:03:36;13.70;99.90
15815;DHT22;8008;50.024;8.172;2022-10-31T19:06:04;13.50;99.90
15815;DHT22;8008;50.024;8.172;2022-10-31T19:08:33;13.40;99.90
15815;DHT22;8008;50.024;8.172;2022-10-31T19:11:05;13.50;99.90
15815;DHT22;8008;50.024;8.172;2022-10-31T19:13:34;13.50;99.90
15815;DHT22;8008;50.024;8.172;2022-10-31T19:16:06;13.40;99.90
15815;DHT22;8008;50.024;8.172;2022-10-31T19:18:37;13.50;99.90
15815;DHT22;8008;50.024;8.172;2022-10-31T19:21:06;13.50;99.90
15815;DHT22;8008;50.024;8.172;2022-10-31T19:23:37;13.50;99.90
15815;DHT22;8008;50.024;8.172;2022-10-31T19:26:05;13.60;99.90
15815;DHT22;8008;50.024;8.172;2022-10-31T19:28:35;13.70;99.90
15815;DHT22;8008;50.024;8.172;2022-10-31T19:31:03;13.70;99.90
15815;DHT22;8008;50.024;8.172;2022-10-31T19:33:32;13.80;99.90
15815;DHT22;8008;50.024;8.172;2022-10-31T19:36:05;13.80;99.90
15815;DHT22;8008;50.024;8.172;2022-10-31T19:38:36;13.80;99.90
15815;DHT22;8008;50.024;8.172;2022-10-31T19:41:05;13.80;99.90
15815;DHT22;8008;50.024;8.172;2022-10-31T19:43:34;13.80;99.90
15815;DHT22;8008;50.024;8.172;2022-10-31T19:46:03;13.70;99.90
15815;DHT22;8008;50.024;8.172;2022-10-31T19:48:34;13.70;99.90
15815;DHT22;8008;50.024;8.172;2022-10-31T19:51:05;13.80;99.90
15815;DHT22;8008;50.024;8.172;2022-10-31T19:53:33;13.70;99.90
15815;DHT22;8008;50.024;8.172;2022-10-31T19:56:03;13.70;99.90
15815;DHT22;8008;50.024;8.172;2022-10-31T19:58:31;13.70;99.90
15815;DHT22;8008;50.024;8.172;2022-10-31T20:01:06;13.70;99.90
15815;DHT22;8008;50.024;8.172;2022-10-31T20:03:36;13.70;99.90
15815;DHT22;8008;50.024;8.172;2022-10-31T20:06:09;13.70;99.90
15815;DHT22;8008;50.024;8.172;2022-10-31T20:08:40;13.60;99.90
15815;DHT22;8008;50.024;8.172;2022-10-31T20:11:08;13.60;99.90
15815;DHT22;8008;50.024;8.172;2022-10-31T20:13:37;13.60;99.90
15815;DHT22;8008;50.024;8.172;2022-10-31T20:16:07;13.60;99.90
15815;DHT22;8008;50.024;8.172;2022-10-31T20:18:36;13.50;99.90
15815;DHT22;8008;50.024;8.172;2022-10-31T20:21:07;13.60;99.90
15815;DHT22;8008;50.024;8.172;2022-10-31T20:23:36;13.50;99.90
15815;DHT22;8008;50.024;8.172;2022-10-31T20:26:07;13.50;99.90
15815;DHT22;8008;50.024;8.172;2022-10-31T20:28:38;13.50;99.90
15815;DHT22;8008;50.024;8.172;2022-10-31T20:31:11;13.40;99.90